Time;durP1;ratioP1;P1;durP2;ratioP2;P2;SDS_P1;SDS_P2;PMS_P1;PMS_P2;Temp;Humidity;BMP_temperature;BMP_pressure;BME280_temperature;BME280_humidity;BME280_pressure;Samples;Min_cycle;Max_cycle;Signal;HPM_P1;HPM_P2
2022/09/07 00:00:18;;;;;;;8.90;1.83;;;;;;;19.61;100.00;100306.00;8276054;28;20038;-54
2022/09/07 00:04:18;;;;;;;4.50;1.63;;;;;;;19.51;100.00;100305.53;8265890;28;20034;-53
2022/09/07 00:08:22;;;;;;;5.43;1.80;;;;;;;19.33;100.00;100304.16;8271599;28;20504;-54
2022/09/07 00:12:22;;;;;;;3.85;2.03;;;;;;;19.28;100.00;100323.09;8272966;28;20069;-51
2022/09/07 00:16:27;;;;;;;4.97;2.28;;;;;;;19.27;100.00;100334.28;8266074;28;20069;-51
2022/09/07 00:20:28;;;;;;;6.13;1.83;;;;;;;19.23;100.00;100336.56;8274021;28;20034;-50
2022/09/07 00:24:28;;;;;;;6.18;1.90;;;;;;;19.24;100.00;100330.00;8261924;28;20030;-54
2022/09/07 00:28:29;;;;;;;4.60;2.25;;;;;;;19.18;100.00;100365.59;8283062;28;20514;-49
2022/09/07 00:32:30;;;;;;;8.55;1.80;;;;;;;19.10;100.00;100361.13;8261002;28;20034;-50
2022/09/07 00:36:30;;;;;;;4.50;1.95;;;;;;;19.12;100.00;100342.59;8260218;28;20503;-49
2022/09/07 00:40:31;;;;;;;4.97;1.95;;;;;;;19.17;100.00;100337.34;8277683;28;20030;-50
2022/09/07 00:44:58;;;;;;;5.05;2.25;;;;;;;19.20;100.00;100331.47;8274150;28;20026;-53
2022/09/07 00:49:06;;;;;;;9.50;2.70;;;;;;;19.15;100.00;100305.69;8278023;28;20088;-49
2022/09/07 00:53:16;;;;;;;4.45;1.80;;;;;;;19.15;100.00;100294.72;8286553;28;20056;-50
2022/09/07 00:57:16;;;;;;;5.32;2.20;;;;;;;19.25;100.00;100281.53;8277776;28;20442;-49
2022/09/07 01:01:17;;;;;;;4.32;1.85;;;;;;;19.32;100.00;100282.44;8266982;28;20026;-50
2022/09/07 01:05:26;;;;;;;5.47;2.45;;;;;;;19.30;100.00;100266.19;8260681;28;20031;-50
2022/09/07 01:09:27;;;;;;;4.20;1.67;;;;;;;19.24;100.00;100258.75;8261033;28;20061;-49
2022/09/07 01:13:28;;;;;;;3.05;1.95;;;;;;;19.28;100.00;100257.31;8261006;28;20089;-54
2022/09/07 01:17:54;;;;;;;4.43;2.13;;;;;;;19.21;100.00;100263.78;8260784;28;20054;-49
2022/09/07 01:22:34;;;;;;;3.80;2.03;;;;;;;19.15;100.00;100273.66;8280106;28;20104;-50
2022/09/07 01:27:05;;;;;;;6.63;2.33;;;;;;;19.08;100.00;100272.78;8289340;28;20120;-52
2022/09/07 01:31:28;;;;;;;4.32;2.20;;;;;;;19.08;100.00;100259.06;8287224;28;20034;-49
2022/09/07 01:36:08;;;;;;;6.55;2.28;;;;;;;19.03;100.00;100258.81;8263913;28;20022;-50
2022/09/07 01:40:15;;;;;;;7.50;2.25;;;;;;;19.01;100.00;100277.38;8284948;28;20080;-50
2022/09/07 01:44:22;;;;;;;5.80;2.70;;;;;;;18.95;100.00;100275.44;8262947;28;20041;-53
2022/09/07 01:48:25;;;;;;;7.20;2.72;;;;;;;18.98;100.00;100283.25;8274940;28;20049;-52
2022/09/07 01:56:49;;;;;;;6.18;3.47;;;;;;;19.00;100.00;100281.16;8395533;27;20397;-48
2022/09/07 02:01:11;;;;;;;4.43;3.10;;;;;;;19.00;100.00;100264.72;8371604;28;20093;-49
2022/09/07 02:05:17;;;;;;;6.47;3.53;;;;;;;18.81;100.00;100259.94;8356184;28;20303;-48
2022/09/07 02:09:33;;;;;;;7.18;4.85;;;;;;;18.79;100.00;100258.47;8353376;28;20055;-49
2022/09/07 02:13:55;;;;;;;12.77;8.57;;;;;;;18.74;100.00;100253.56;8352601;28;20131;-49
2022/09/07 02:18:01;;;;;;;15.50;9.60;;;;;;;18.67;100.00;100243.63;8377119;28;20028;-50
2022/09/07 02:22:07;;;;;;;13.68;9.63;;;;;;;18.63;100.00;100229.47;8382912;28;20041;-49
2022/09/07 02:26:14;;;;;;;12.90;8.88;;;;;;;18.59;100.00;100227.31;8356329;28;20039;-49
2022/09/07 02:30:15;;;;;;;12.80;9.60;;;;;;;18.54;100.00;100219.72;8352526;28;20399;-49
2022/09/07 02:34:16;;;;;;;9.57;6.28;;;;;;;18.52;100.00;100210.88;8361484;28;20037;-53
2022/09/07 02:38:17;;;;;;;11.88;6.20;;;;;;;18.45;100.00;100220.91;8356419;28;20037;-50
2022/09/07 02:42:17;;;;;;;9.05;5.28;;;;;;;18.47;100.00;100234.38;8384207;28;20029;-50
2022/09/07 02:46:58;;;;;;;4.60;3.75;;;;;;;18.47;100.00;100235.25;8378313;28;20041;-49
2022/09/07 02:51:27;;;;;;;3.80;3.40;;;;;;;18.42;100.00;100231.41;8357667;28;20037;-52
2022/09/07 02:55:55;;;;;;;5.82;3.15;;;;;;;18.26;100.00;100221.56;8352575;28;20029;-49
2022/09/07 03:00:16;;;;;;;6.18;3.10;;;;;;;18.16;100.00;100229.25;8354233;28;20048;-49
2022/09/07 03:04:24;;;;;;;7.75;2.40;;;;;;;18.15;100.00;100223.97;8378665;28;20035;-47
2022/09/07 03:08:31;;;;;;;7.40;2.20;;;;;;;18.03;100.00;100220.94;8360563;28;20029;-47
2022/09/07 03:12:48;;;;;;;3.95;1.90;;;;;;;18.03;100.00;100223.66;8352560;28;20036;-47
2022/09/07 03:16:52;;;;;;;2.38;1.77;;;;;;;18.10;100.00;100220.97;8331486;28;20494;-48
2022/09/07 03:20:53;;;;;;;5.03;2.10;;;;;;;18.07;100.00;100227.69;8337389;28;20128;-47
2022/09/07 03:24:53;;;;;;;5.80;2.22;;;;;;;18.04;100.00;100221.75;8328079;28;20502;-47
2022/09/07 03:28:54;;;;;;;5.33;2.23;;;;;;;17.98;100.00;100223.38;8338803;28;20398;-47
2022/09/07 03:32:55;;;;;;;6.28;2.50;;;;;;;18.02;100.00;100213.75;8328022;28;20406;-47
2022/09/07 03:36:55;;;;;;;6.22;4.38;;;;;;;18.03;100.00;100209.13;8340594;28;20033;-46
2022/09/07 03:40:57;;;;;;;7.90;4.75;;;;;;;18.11;100.00;100215.31;8359691;28;20025;-50
2022/09/07 03:44:58;;;;;;;8.70;6.70;;;;;;;18.09;100.00;100209.19;8360587;28;20123;-47
2022/09/07 03:48:58;;;;;;;14.53;7.67;;;;;;;18.09;100.00;100224.75;8356141;28;20041;-46
2022/09/07 03:52:58;;;;;;;13.25;7.63;;;;;;;18.11;100.00;100223.50;8357699;28;20729;-47
2022/09/07 03:56:59;;;;;;;15.93;9.70;;;;;;;18.04;100.00;100227.22;8341609;28;20524;-49
2022/09/07 04:01:06;;;;;;;22.13;11.90;;;;;;;18.04;100.00;100228.09;8342524;28;20040;-47
2022/09/07 04:05:07;;;;;;;28.75;15.05;;;;;;;18.05;100.00;100218.81;8343747;28;20116;-49
2022/09/07 04:09:11;;;;;;;39.80;15.57;;;;;;;17.94;100.00;100213.88;8348564;28;20047;-48
2022/09/07 04:13:11;;;;;;;44.90;17.67;;;;;;;18.01;100.00;100223.00;8377157;28;20041;-49
2022/09/07 04:17:12;;;;;;;35.07;17.10;;;;;;;17.91;100.00;100206.06;8343226;28;20076;-48
2022/09/07 04:21:12;;;;;;;26.35;14.60;;;;;;;17.88;100.00;100201.00;8345758;28;20279;-48
2022/09/07 04:25:13;;;;;;;26.50;15.32;;;;;;;17.96;100.00;100197.28;8342720;28;20121;-47
2022/09/07 04:29:13;;;;;;;30.27;16.00;;;;;;;17.90;100.00;100193.41;8344831;28;20057;-47
2022/09/07 04:33:14;;;;;;;33.45;17.13;;;;;;;17.83;100.00;100192.50;8343236;28;20033;-48
2022/09/07 04:37:14;;;;;;;34.90;17.90;;;;;;;17.77;100.00;100186.97;8340366;28;20040;-46
2022/09/07 04:41:16;;;;;;;32.17;16.77;;;;;;;17.79;100.00;100185.75;8349801;28;20124;-49
2022/09/07 04:45:17;;;;;;;34.53;18.05;;;;;;;17.76;100.00;100186.13;8347958;28;20379;-48
2022/09/07 04:49:17;;;;;;;29.38;16.42;;;;;;;17.70;100.00;100181.44;8351379;28;20037;-47
2022/09/07 04:53:18;;;;;;;29.83;17.45;;;;;;;17.72;100.00;100184.00;8346852;28;20037;-49
2022/09/07 04:57:23;;;;;;;31.17;17.73;;;;;;;17.69;100.00;100185.22;8341337;28;20562;-49
2022/09/07 05:01:24;;;;;;;29.92;17.58;;;;;;;17.61;100.00;100177.16;8324839;28;20168;-51
2022/09/07 05:05:25;;;;;;;30.55;17.38;;;;;;;17.57;100.00;100170.38;8344951;28;20044;-48
2022/09/07 05:09:25;;;;;;;32.55;17.83;;;;;;;17.56;100.00;100179.59;8331574;28;20236;-46
2022/09/07 05:13:27;;;;;;;30.20;17.10;;;;;;;17.56;100.00;100175.00;8326513;28;20168;-46
2022/09/07 05:17:29;;;;;;;35.60;17.50;;;;;;;17.58;100.00;100183.00;8319350;28;20291;-47
2022/09/07 05:21:32;;;;;;;36.17;18.83;;;;;;;17.62;100.00;100178.81;8322359;28;20029;-46
2022/09/07 05:25:32;;;;;;;31.55;18.10;;;;;;;17.68;100.00;100178.06;8325467;28;20454;-47
2022/09/07 05:29:33;;;;;;;31.30;17.50;;;;;;;17.62;100.00;100178.81;8346738;28;20037;-47
2022/09/07 05:33:34;;;;;;;34.00;18.05;;;;;;;17.63;100.00;100181.38;8318760;28;20434;-49
2022/09/07 05:37:34;;;;;;;32.40;17.17;;;;;;;17.68;100.00;100185.44;8335223;28;20413;-48
2022/09/07 05:41:35;;;;;;;37.67;18.10;;;;;;;17.75;100.00;100195.38;8340557;28;20044;-51
2022/09/07 05:45:35;;;;;;;28.73;16.08;;;;;;;17.81;100.00;100215.63;8345150;28;20271;-51
2022/09/07 05:49:36;;;;;;;31.70;17.30;;;;;;;17.85;100.00;100206.84;8336062;28;20045;-47
2022/09/07 05:53:39;;;;;;;29.02;16.95;;;;;;;17.87;100.00;100199.28;8327014;28;20106;-48
2022/09/07 05:57:39;;;;;;;26.33;16.60;;;;;;;18.00;100.00;100212.25;8342099;28;20069;-50
2022/09/07 06:01:40;;;;;;;28.50;14.75;;;;;;;18.16;100.00;100207.38;8342936;28;20479;-47
2022/09/07 06:05:40;;;;;;;22.17;14.77;;;;;;;18.35;100.00;100220.38;8334108;28;20044;-48
2022/09/07 06:09:40;;;;;;;18.10;12.07;;;;;;;18.42;100.00;100221.28;8335298;28;20064;-48
2022/09/07 06:13:41;;;;;;;16.42;11.35;;;;;;;18.94;100.00;100215.38;8337656;28;20068;-51
2022/09/07 06:17:42;;;;;;;20.90;9.82;;;;;;;19.32;100.00;100219.38;8327421;28;20605;-48
2022/09/07 06:21:42;;;;;;;11.35;7.72;;;;;;;19.75;100.00;100214.47;8321607;28;20355;-48
2022/09/07 06:25:48;;;;;;;3.83;3.47;;;;;;;19.91;100.00;100219.59;8342082;28;20037;-50
2022/09/07 06:29:48;;;;;;;5.85;2.50;;;;;;;19.96;100.00;100217.91;8339046;28;20041;-49
2022/09/07 06:33:50;;;;;;;5.77;2.40;;;;;;;19.95;100.00;100220.88;8332843;28;20554;-49
2022/09/07 06:37:50;;;;;;;3.67;1.58;;;;;;;20.14;100.00;100236.53;8335350;28;20272;-48
2022/09/07 06:41:51;;;;;;;6.90;1.73;;;;;;;20.32;100.00;100240.38;8335421;28;20121;-48
2022/09/07 06:45:52;;;;;;;4.03;1.50;;;;;;;20.42;100.00;100242.69;8344985;28;20125;-52
2022/09/07 06:49:53;;;;;;;3.28;1.40;;;;;;;20.51;100.00;100244.19;8334057;28;20041;-46
2022/09/07 06:53:55;;;;;;;5.03;1.60;;;;;;;20.51;100.00;100249.66;8337354;28;20045;-48
2022/09/07 06:57:55;;;;;;;4.18;1.48;;;;;;;20.73;100.00;100264.88;8352041;28;20038;-49
2022/09/07 07:01:56;;;;;;;3.28;1.00;;;;;;;20.71;100.00;100256.84;8345995;28;20041;-46
2022/09/07 07:05:56;;;;;;;5.38;1.40;;;;;;;20.91;100.00;100267.81;8342575;28;20083;-47
2022/09/07 07:09:56;;;;;;;8.43;1.80;;;;;;;20.86;100.00;100264.91;8336662;28;20026;-47
2022/09/07 07:13:58;;;;;;;8.27;2.00;;;;;;;20.75;100.00;100268.28;8336897;28;20033;-47
2022/09/07 07:17:59;;;;;;;5.47;2.20;;;;;;;20.80;100.00;100271.25;8345542;28;20292;-48
2022/09/07 07:21:59;;;;;;;10.55;2.33;;;;;;;20.76;100.00;100265.31;8360021;28;20049;-47
2022/09/07 07:26:01;;;;;;;8.65;2.47;;;;;;;21.22;100.00;100259.75;8360436;28;20083;-47
2022/09/07 07:30:02;;;;;;;5.05;2.05;;;;;;;21.63;98.53;100268.53;8339889;28;20499;-47
2022/09/07 07:34:03;;;;;;;7.15;1.88;;;;;;;22.02;97.15;100262.84;8348013;28;20486;-49
2022/09/07 07:38:03;;;;;;;7.43;2.00;;;;;;;22.17;95.08;100274.41;8360252;28;20406;-48
2022/09/07 07:42:04;;;;;;;8.73;1.90;;;;;;;21.76;94.69;100279.50;8355643;28;20121;-47
2022/09/07 07:46:04;;;;;;;4.82;1.77;;;;;;;21.77;96.26;100285.88;8331164;28;20279;-47
2022/09/07 07:50:07;;;;;;;5.03;1.40;;;;;;;21.65;99.29;100282.06;8331342;28;20698;-47
2022/09/07 07:54:07;;;;;;;6.97;2.13;;;;;;;21.74;99.13;100287.13;8327430;28;20042;-47
2022/09/07 07:58:07;;;;;;;7.30;1.60;;;;;;;21.89;99.82;100289.63;8339100;28;20482;-47
2022/09/07 08:02:13;;;;;;;4.80;1.67;;;;;;;22.34;98.35;100285.75;8340834;28;20037;-49
2022/09/07 08:06:16;;;;;;;4.35;1.63;;;;;;;23.15;96.02;100277.22;8358403;28;20398;-47
2022/09/07 08:10:16;;;;;;;4.93;1.25;;;;;;;23.33;93.35;100278.38;8326806;28;20330;-48
2022/09/07 08:14:17;;;;;;;7.73;1.47;;;;;;;23.13;92.67;100290.44;8326895;28;20042;-48
2022/09/07 08:18:18;;;;;;;3.22;1.30;;;;;;;22.77;94.28;100309.63;8326757;28;20288;-47
2022/09/07 08:22:18;;;;;;;8.13;2.00;;;;;;;22.91;93.29;100311.19;8327308;28;20033;-48
2022/09/07 08:26:18;;;;;;;5.90;1.50;;;;;;;22.77;92.95;100306.00;8331854;28;20642;-47
2022/09/07 08:30:19;;;;;;;1.23;1.00;;;;;;;22.63;93.59;100302.50;8337292;28;20272;-47
2022/09/07 08:34:20;;;;;;;2.53;1.30;;;;;;;22.57;94.18;100303.41;8325479;28;20272;-48
2022/09/07 08:38:21;;;;;;;5.10;1.70;;;;;;;22.85;93.68;100303.00;8327148;28;20604;-47
2022/09/07 08:42:45;;;;;;;5.18;1.27;;;;;;;23.32;91.58;100293.25;8327508;28;20380;-47
2022/09/07 08:46:55;;;;;;;4.45;1.13;;;;;;;23.58;85.84;100296.56;8335429;28;20030;-47
2022/09/07 08:51:18;;;;;;;2.63;0.98;;;;;;;23.42;85.16;100293.56;8325793;28;20034;-49
2022/09/07 08:55:28;;;;;;;1.67;1.07;;;;;;;23.66;85.24;100301.75;8317875;28;20045;-49
2022/09/07 08:59:41;;;;;;;6.97;1.33;;;;;;;24.18;82.31;100300.28;8338296;28;20060;-50
2022/09/07 09:03:42;;;;;;;2.53;1.10;;;;;;;24.47;82.90;100299.41;8326271;28;20129;-49
2022/09/07 09:08:06;;;;;;;1.98;1.10;;;;;;;24.62;78.95;100297.03;8326193;28;20439;-48
2022/09/07 09:12:28;;;;;;;3.78;1.27;;;;;;;24.19;80.26;100307.47;8331075;28;20116;-51
2022/09/07 09:16:39;;;;;;;4.35;0.90;;;;;;;24.11;82.84;100310.56;8339969;28;20044;-48
2022/09/07 09:20:48;;;;;;;3.28;1.17;;;;;;;24.32;82.90;100318.34;8373348;28;20044;-48
2022/09/07 09:24:56;;;;;;;1.75;0.85;;;;;;;24.68;77.32;100321.03;8337617;28;20040;-51
2022/09/07 09:28:56;;;;;;;1.42;0.80;;;;;;;25.45;76.87;100318.00;8324006;28;20033;-47
2022/09/07 09:33:14;;;;;;;3.40;1.10;;;;;;;27.74;69.96;100313.44;8324911;28;20509;-49
2022/09/07 09:37:31;;;;;;;2.10;0.80;;;;;;;29.85;62.76;100325.59;8322079;28;20383;-48
2022/09/07 09:41:36;;;;;;;4.35;1.08;;;;;;;31.14;60.19;100331.00;8335948;28;20029;-48
2022/09/07 09:45:44;;;;;;;1.98;0.75;;;;;;;32.01;57.67;100340.69;8340143;28;20033;-49
2022/09/07 09:49:44;;;;;;;2.97;1.00;;;;;;;31.66;58.70;100348.31;8295566;28;20481;-50
2022/09/07 09:53:56;;;;;;;5.43;0.95;;;;;;;31.52;59.32;100344.41;8323977;28;20073;-47
2022/09/07 09:58:01;;;;;;;2.15;1.00;;;;;;;28.28;65.17;100338.38;8338039;28;20033;-51
2022/09/07 10:02:29;;;;;;;6.50;2.13;;;;;;;27.31;69.91;100327.25;8324592;28;20033;-50
2022/09/07 10:06:30;;;;;;;6.50;1.77;;;;;;;26.77;71.94;100332.44;8349639;28;20032;-48
2022/09/07 10:10:31;;;;;;;7.20;1.60;;;;;;;26.76;73.36;100329.91;8355430;28;20060;-50
2022/09/07 10:14:42;;;;;;;3.97;1.67;;;;;;;27.13;74.62;100333.03;8356308;28;20048;-49
2022/09/07 10:18:58;;;;;;;8.30;1.40;;;;;;;29.07;67.48;100328.38;8331178;28;20418;-50
2022/09/07 10:22:59;;;;;;;4.32;1.60;;;;;;;27.79;73.36;100327.41;8358058;28;20021;-48
2022/09/07 10:26:59;;;;;;;8.82;2.03;;;;;;;27.04;73.36;100320.69;8363397;28;20560;-47
2022/09/07 10:35:37;;;;;;;5.10;1.50;;;;;;;29.77;63.67;100312.19;8313959;28;20476;-49
2022/09/07 10:39:41;;;;;;;6.93;1.80;;;;;;;28.63;66.24;100310.09;8293772;28;20108;-47
2022/09/07 10:43:44;;;;;;;7.57;1.50;;;;;;;28.03;67.14;100296.34;8320659;28;20040;-47
2022/09/07 10:48:19;;;;;;;4.00;1.35;;;;;;;27.06;68.14;100301.81;8303977;28;20117;-47
2022/09/07 10:52:30;;;;;;;2.90;1.70;;;;;;;25.92;70.92;100305.72;8300352;28;20033;-47
2022/09/07 10:56:36;;;;;;;4.30;1.98;;;;;;;25.39;75.51;100302.34;8319959;28;20129;-47
2022/09/07 11:00:54;;;;;;;5.55;1.35;;;;;;;25.40;74.08;100304.03;8344604;28;20029;-46
2022/09/07 11:05:24;;;;;;;2.72;1.40;;;;;;;29.96;61.77;100298.59;8351569;28;20126;-47
2022/09/07 11:09:55;;;;;;;2.17;1.33;;;;;;;31.26;56.19;100307.25;8349159;28;20064;-48
2022/09/07 11:14:03;;;;;;;3.58;1.58;;;;;;;28.46;62.03;100303.84;8349899;28;20036;-47
2022/09/07 11:18:13;;;;;;;3.17;1.30;;;;;;;27.80;64.49;100287.41;8349655;28;20063;-49
2022/09/07 11:22:25;;;;;;;4.22;1.80;;;;;;;26.48;68.59;100291.94;8314930;28;20392;-48
2022/09/07 11:26:36;;;;;;;6.53;2.00;;;;;;;26.80;68.82;100287.53;8256331;28;20065;-50
2022/09/07 11:30:44;;;;;;;2.78;1.90;;;;;;;26.50;71.72;100286.13;8281522;28;20069;-47
2022/09/07 11:34:52;;;;;;;7.00;2.03;;;;;;;26.34;70.33;100275.84;8296692;28;20535;-47
2022/09/07 11:39:10;;;;;;;6.30;2.10;;;;;;;26.07;70.33;100281.13;8295357;28;20495;-46
2022/09/07 11:43:19;;;;;;;4.63;2.35;;;;;;;25.94;71.07;100284.19;8290479;28;20080;-47
2022/09/07 11:47:29;;;;;;;2.72;1.60;;;;;;;27.51;68.11;100272.00;8260000;28;20045;-48
2022/09/07 11:51:45;;;;;;;5.72;1.50;;;;;;;28.20;63.26;100271.22;8255222;28;20168;-46
2022/09/07 11:55:52;;;;;;;3.42;1.50;;;;;;;28.25;64.43;100269.38;8288369;28;20069;-48
2022/09/07 12:08:58;;;;;;;2.90;1.00;;;;;;;27.05;63.58;100261.28;8291272;28;20435;-47
2022/09/07 12:13:27;;;;;;;6.82;1.40;;;;;;;26.62;66.02;100268.34;8252537;28;20042;-49
2022/09/07 12:26:35;;;;;;;4.72;0.77;;;;;;;28.73;58.61;100249.00;8288205;28;20407;-49
2022/09/07 12:34:51;;;;;;;3.17;0.77;;;;;;;28.92;57.55;100241.06;8391545;27;20435;-50
2022/09/07 12:39:23;;;;;;;4.05;1.20;;;;;;;28.51;58.26;100240.72;8374721;28;20026;-50
2022/09/07 12:43:33;;;;;;;3.60;0.75;;;;;;;27.64;58.71;100238.28;8382758;28;20552;-47
2022/09/07 12:47:34;;;;;;;2.22;0.68;;;;;;;27.19;62.11;100220.97;8376569;28;20494;-48
2022/09/07 12:51:38;;;;;;;3.58;0.68;;;;;;;27.91;60.61;100234.50;8379033;28;20527;-48
2022/09/07 12:56:07;;;;;;;1.85;0.60;;;;;;;27.51;58.51;100227.56;8379305;28;20033;-48
2022/09/07 13:00:19;;;;;;;1.90;0.68;;;;;;;27.25;58.43;100223.59;8373063;28;20407;-47
2022/09/07 13:04:52;;;;;;;3.85;0.90;;;;;;;27.50;58.41;100218.38;8374226;28;20091;-49
2022/09/07 13:13:16;;;;;;;2.58;0.80;;;;;;;27.15;58.65;100214.25;8339305;27;20128;-47
2022/09/07 13:21:48;;;;;;;2.78;0.75;;;;;;;27.60;61.92;100209.34;8384419;27;20428;-47
2022/09/07 13:25:52;;;;;;;1.67;0.60;;;;;;;27.17;60.29;100195.41;8352787;28;20051;-50
2022/09/07 13:29:56;;;;;;;2.13;0.93;;;;;;;27.43;58.26;100191.91;8378047;28;20024;-46
2022/09/07 13:33:56;;;;;;;3.55;0.70;;;;;;;27.63;58.01;100194.94;8383449;28;20490;-49
2022/09/07 13:37:59;;;;;;;3.38;0.98;;;;;;;27.62;58.61;100190.47;8362050;28;20092;-50
2022/09/07 13:42:00;;;;;;;4.13;0.67;;;;;;;27.58;60.32;100186.53;8349651;28;20041;-49
2022/09/07 13:46:08;;;;;;;2.92;0.60;;;;;;;27.24;59.66;100182.19;8348577;28;20045;-48
2022/09/07 13:50:35;;;;;;;3.75;0.60;;;;;;;27.40;56.48;100181.31;8350137;28;20041;-47
2022/09/07 13:54:59;;;;;;;1.10;0.45;;;;;;;27.34;55.66;100188.75;8345918;28;20095;-48
2022/09/07 13:59:26;;;;;;;4.50;0.60;;;;;;;27.35;57.29;100162.63;8351506;28;20116;-49
2022/09/07 14:03:36;;;;;;;1.55;0.60;;;;;;;27.60;55.51;100170.47;8345453;28;20049;-46
2022/09/07 14:07:44;;;;;;;2.25;0.63;;;;;;;27.55;55.30;100170.38;8347284;28;20048;-46
2022/09/07 14:11:48;;;;;;;2.33;0.65;;;;;;;27.77;55.09;100165.63;8348964;28;20431;-47
2022/09/07 14:15:49;;;;;;;1.27;0.40;;;;;;;27.78;55.00;100161.78;8336629;28;20048;-47
2022/09/07 14:19:50;;;;;;;3.15;0.45;;;;;;;27.65;55.18;100167.72;8350730;28;20045;-46
2022/09/07 14:23:51;;;;;;;12.88;0.73;;;;;;;27.44;56.41;100165.81;8345667;28;20144;-49
2022/09/07 14:27:51;;;;;;;2.10;0.35;;;;;;;27.58;53.48;100153.19;8348704;28;20051;-46
2022/09/07 14:31:52;;;;;;;3.28;0.40;;;;;;;27.74;53.71;100160.59;8333493;28;20038;-50
2022/09/07 14:35:53;;;;;;;1.95;0.45;;;;;;;27.72;53.99;100162.81;8327973;28;20090;-50
2022/09/07 14:39:54;;;;;;;1.17;0.30;;;;;;;27.57;53.13;100157.09;8322619;28;20033;-47
2022/09/07 14:43:57;;;;;;;2.42;0.45;;;;;;;27.58;53.83;100155.97;8320193;28;20042;-46
2022/09/07 14:47:58;;;;;;;1.90;0.40;;;;;;;27.60;54.02;100154.63;8324134;28;20033;-47
2022/09/07 14:51:59;;;;;;;2.03;0.43;;;;;;;27.54;54.65;100154.81;8325582;28;20136;-47
2022/09/07 14:56:06;;;;;;;2.50;0.50;;;;;;;27.66;54.86;100152.75;8321202;28;20041;-47
2022/09/07 15:00:29;;;;;;;1.45;0.47;;;;;;;27.71;54.81;100134.19;8325757;28;20363;-48
2022/09/07 15:04:30;;;;;;;1.47;0.30;;;;;;;27.47;55.05;100143.91;8325857;28;20119;-47
2022/09/07 15:08:47;;;;;;;1.55;0.60;;;;;;;27.39;55.05;100140.75;8324871;28;20025;-50
2022/09/07 15:12:49;;;;;;;1.42;0.40;;;;;;;27.76;53.76;100141.75;8324843;28;20090;-48
2022/09/07 15:17:00;;;;;;;4.03;0.57;;;;;;;27.63;52.65;100126.31;8327762;28;20033;-47
2022/09/07 15:21:00;;;;;;;5.03;0.38;;;;;;;27.60;52.18;100128.78;8325348;28;20069;-49
2022/09/07 15:25:00;;;;;;;1.60;0.50;;;;;;;27.57;52.60;100126.53;8325788;28;20056;-47
2022/09/07 15:29:01;;;;;;;2.13;0.45;;;;;;;27.47;52.01;100123.66;8320265;28;20276;-46
2022/09/07 15:33:01;;;;;;;1.88;0.50;;;;;;;27.36;52.39;100113.50;8322528;28;20053;-47
2022/09/07 15:37:01;;;;;;;1.93;0.40;;;;;;;27.15;53.68;100115.16;8315462;28;20037;-46
2022/09/07 15:41:02;;;;;;;3.05;0.60;;;;;;;27.12;54.18;100112.91;8312315;28;20284;-46
2022/09/07 15:45:03;;;;;;;0.80;0.30;;;;;;;26.95;54.08;100116.84;8318010;28;20120;-46
2022/09/07 15:49:04;;;;;;;2.75;0.70;;;;;;;26.90;53.89;100109.28;8311289;28;20072;-46
2022/09/07 15:53:04;;;;;;;3.57;0.60;;;;;;;26.91;53.96;100110.94;8307966;28;20088;-47
2022/09/07 15:57:05;;;;;;;2.50;0.60;;;;;;;26.67;56.19;100107.56;8321143;28;20240;-47
2022/09/07 16:01:06;;;;;;;1.98;0.60;;;;;;;26.53;59.66;100120.06;8321514;28;20573;-46
2022/09/07 16:05:07;;;;;;;4.72;0.73;;;;;;;26.42;59.34;100107.16;8322912;28;20484;-48
2022/09/07 16:09:07;;;;;;;3.97;0.90;;;;;;;26.40;59.86;100108.47;8323196;28;20040;-49
2022/09/07 16:13:08;;;;;;;7.65;1.23;;;;;;;26.27;59.86;100098.59;8321399;28;20415;-47
2022/09/07 16:17:08;;;;;;;3.97;1.20;;;;;;;26.23;60.66;100097.38;8318824;28;20152;-47
2022/09/07 16:21:11;;;;;;;6.37;0.80;;;;;;;26.14;60.96;100096.13;8319253;28;20056;-46
2022/09/07 16:25:12;;;;;;;5.57;0.80;;;;;;;26.12;60.59;100094.69;8315539;28;20286;-48
2022/09/07 16:29:12;;;;;;;3.38;0.90;;;;;;;26.07;63.20;100103.78;8313787;28;20041;-47
2022/09/07 16:33:13;;;;;;;5.25;0.95;;;;;;;26.12;63.45;100105.78;8314684;28;20447;-47
2022/09/07 16:37:14;;;;;;;5.88;0.85;;;;;;;26.10;62.02;100108.81;8313277;28;20118;-47
2022/09/07 16:41:17;;;;;;;4.65;1.20;;;;;;;26.14;61.56;100095.31;8314558;28;20037;-47
2022/09/07 16:45:18;;;;;;;5.17;1.10;;;;;;;26.12;61.37;100106.63;8344509;28;20033;-47
2022/09/07 16:49:18;;;;;;;7.93;1.23;;;;;;;26.08;61.32;100102.69;8317709;28;20041;-46
2022/09/07 16:53:19;;;;;;;3.03;0.75;;;;;;;25.99;60.25;100106.13;8312501;28;20041;-47
2022/09/07 16:57:19;;;;;;;3.72;0.68;;;;;;;25.95;61.41;100104.94;8315830;28;20052;-47
2022/09/07 17:01:23;;;;;;;4.85;0.85;;;;;;;25.79;62.65;100114.03;8318832;28;20403;-47
2022/09/07 17:05:23;;;;;;;5.00;0.85;;;;;;;25.68;63.25;100106.63;8317874;28;20047;-50
2022/09/07 17:09:26;;;;;;;3.40;0.60;;;;;;;25.58;63.98;100098.97;8318439;28;20029;-47
2022/09/07 17:13:27;;;;;;;2.15;0.60;;;;;;;25.44;64.41;100097.59;8316952;28;20280;-47
2022/09/07 17:17:27;;;;;;;3.25;0.77;;;;;;;25.47;64.30;100091.56;8318601;28;20090;-47
2022/09/07 17:21:31;;;;;;;2.25;0.88;;;;;;;25.35;64.26;100082.47;8317944;28;20438;-47
2022/09/07 17:25:32;;;;;;;4.85;1.02;;;;;;;25.23;64.97;100084.41;8317370;28;20040;-47
2022/09/07 17:29:33;;;;;;;8.60;1.33;;;;;;;25.15;65.30;100083.97;8317866;28;20029;-47
2022/09/07 17:33:35;;;;;;;5.40;0.70;;;;;;;24.99;66.36;100082.78;8318104;28;20379;-47
2022/09/07 17:37:36;;;;;;;6.10;1.00;;;;;;;24.78;67.79;100064.94;8315751;28;20127;-48
2022/09/07 17:41:36;;;;;;;2.78;0.77;;;;;;;24.64;66.30;100063.50;8317410;28;20041;-47
2022/09/07 17:45:36;;;;;;;2.42;0.80;;;;;;;24.54;66.78;100051.34;8311090;28;20033;-47
2022/09/07 17:49:37;;;;;;;3.00;0.73;;;;;;;24.44;67.00;100051.13;8317487;28;20041;-47
2022/09/07 17:53:39;;;;;;;2.83;0.88;;;;;;;24.37;67.97;100050.41;8316205;28;20278;-47
2022/09/07 17:57:39;;;;;;;3.95;0.77;;;;;;;24.12;70.13;100058.09;8317481;28;20041;-47
2022/09/07 18:01:40;;;;;;;3.35;0.90;;;;;;;23.84;71.49;100061.50;8317201;28;20037;-47
2022/09/07 18:05:40;;;;;;;3.15;0.85;;;;;;;23.61;72.36;100069.75;8318406;28;20041;-47
2022/09/07 18:09:41;;;;;;;4.03;0.90;;;;;;;23.48;73.01;100080.13;8323735;28;20037;-47
2022/09/07 18:13:46;;;;;;;5.45;1.30;;;;;;;23.18;73.92;100080.91;8322675;28;20276;-47
2022/09/07 18:17:46;;;;;;;7.00;1.05;;;;;;;22.96;76.12;100090.75;8320079;28;20033;-48
2022/09/07 18:21:47;;;;;;;4.57;1.03;;;;;;;22.94;75.46;100086.56;8323558;28;20041;-47
2022/09/07 18:25:56;;;;;;;5.07;0.85;;;;;;;22.65;78.41;100082.66;8319846;28;20380;-47
2022/09/07 18:29:56;;;;;;;3.67;1.10;;;;;;;22.15;81.36;100081.03;8322411;28;20312;-47
2022/09/07 18:33:57;;;;;;;3.67;1.17;;;;;;;21.75;84.12;100079.66;8321794;28;20293;-46
2022/09/07 18:37:58;;;;;;;4.68;1.20;;;;;;;21.63;85.46;100070.41;8318317;28;20045;-47
2022/09/07 18:41:58;;;;;;;2.30;1.10;;;;;;;21.32;86.81;100084.16;8340795;28;20506;-47
2022/09/07 18:46:00;;;;;;;4.68;1.20;;;;;;;21.26;87.68;100074.03;8320958;28;20052;-47
2022/09/07 18:50:01;;;;;;;2.65;0.80;;;;;;;21.55;84.93;100076.16;8317955;28;20458;-46
2022/09/07 18:54:02;;;;;;;4.70;1.35;;;;;;;21.46;85.93;100079.44;8321560;28;20053;-47
2022/09/07 18:58:02;;;;;;;5.38;1.20;;;;;;;21.14;88.07;100084.88;8314387;28;20037;-47
2022/09/07 19:02:03;;;;;;;6.13;1.30;;;;;;;21.10;88.12;100091.03;8317888;28;20052;-47
2022/09/07 19:06:07;;;;;;;5.60;1.30;;;;;;;21.26;86.38;100079.53;8318738;28;20096;-46
2022/09/07 19:10:09;;;;;;;3.83;1.20;;;;;;;21.22;88.26;100081.03;8321090;28;20057;-47
2022/09/07 19:14:10;;;;;;;6.72;1.48;;;;;;;21.21;88.19;100082.94;8323955;28;20035;-46
2022/09/07 19:18:10;;;;;;;4.47;1.48;;;;;;;21.31;87.83;100066.81;8320492;28;20037;-47
2022/09/07 19:22:11;;;;;;;6.45;1.70;;;;;;;21.03;89.79;100065.47;8318299;28;20088;-46
2022/09/07 19:26:11;;;;;;;6.15;1.65;;;;;;;20.91;90.33;100064.44;8320704;28;20041;-50
2022/09/07 19:30:12;;;;;;;3.73;1.30;;;;;;;20.75;91.14;100070.44;8319933;28;20059;-49